Airfield :
LOGIN :

Register | Disclaimer

   EN    FR    IT 

 










Legend :    VFR   Marginal VFR   IFR   Intensive IFR   Very Intensive IFR
Visi :
Ceiling :
>= 8 km
>= 3000ft
5 to 8 km
1000 to 3000 ft
1500m to 5 km
500 to 1000 ft
800 to 1500m
200 to 500 ft
< 800m
< 200 ft
Symbols :   Thunderstorms  Fog  Heavy snow  Heavy precipitations  Wind > 20 kt
SIGMETs :     Misc.  Thunderstorms  Icing  Turbulence  Mountain Waves  Volcanic Ashes







- Airport Elevation : 465 ft


ENFB - Statfjord B Platform

CURRENT METAR :
  • 212320Z AUTO 19025KT 9999NDV FEW120/// 07/03 Q1024 W///S5

EXPIRED METARs :
  • 212250Z AUTO 20026KT 9999NDV NCD 07/03 Q1025 W///S5
  • 212220Z AUTO 20028KT 9999NDV FEW021/// 07/03 Q1025 W///S5
  • 212150Z AUTO 21027KT 9999NDV NCD 07/02 Q1025 W///S5
  • 212120Z AUTO 21028KT 9999NDV FEW027/// 07/02 Q1025 W///S5
  • 212050Z AUTO 21026KT 9999NDV FEW025/// 07/03 Q1025 W///S4

TAF N/A
No reported NOTAMs for that airfield.
1 SIGMET reported for the Norway FIR (ENOR) :
 
Severe turbulence
ENBD SIGMET C07 VALID 212030/220030 ENVV
ENOR NORWAY FIR SEV TURB FCST WI N6200 E01212 - N6200 E00930 - N6340 E00440 - N6500 E00605 - N6500 E01415 - N6200 E01212 FL180/360 MOV NE 20KT WKN=



MET'MAP, your aeronautical weather chart ! - Copyright ORBIFLY December 2007 - Disclaimer

ORBIFLY MET'MAP TEAM :

Programming & Development : Alexandra Zaïnal
Concept & Development : Baudouin d'Aumeries
Co-Development & Prog : Marc-Olivier Méhu
Technical & hardware support : Manuel Goepfert

Contact : metmap@orbifly.com




SOURCES & CREDITS :

   NOAA